sensor_id;sensor_type;location;lat;lon;timestamp;pressure;altitude;pressure_sealevel;temperature;humidity
75312;BME280;63906;55.686;37.532;2023-04-03T00:04:51;99227.59;;;8.82;70.81
75312;BME280;63906;55.686;37.532;2023-04-03T00:09:52;99233.47;;;8.84;71.31
75312;BME280;63906;55.686;37.532;2023-04-03T00:14:53;99214.78;;;8.72;70.95
75312;BME280;63906;55.686;37.532;2023-04-03T00:19:53;99189.25;;;8.59;70.71
75312;BME280;63906;55.686;37.532;2023-04-03T00:24:55;99228.84;;;8.86;70.94
75312;BME280;63906;55.686;37.532;2023-04-03T00:29:55;99236.34;;;8.89;70.63
75312;BME280;63906;55.686;37.532;2023-04-03T00:34:56;99234.53;;;8.89;69.90
75312;BME280;63906;55.686;37.532;2023-04-03T00:39:57;99213.59;;;8.75;70.38
75312;BME280;63906;55.686;37.532;2023-04-03T00:49:58;99235.47;;;8.82;70.14
75312;BME280;63906;55.686;37.532;2023-04-03T00:55:02;99209.50;;;8.66;70.18
75312;BME280;63906;55.686;37.532;2023-04-03T01:00:07;99203.19;;;8.60;70.06
75312;BME280;63906;55.686;37.532;2023-04-03T01:05:09;99223.16;;;8.61;70.51
75312;BME280;63906;55.686;37.532;2023-04-03T01:10:12;99222.16;;;8.62;70.33
75312;BME280;63906;55.686;37.532;2023-04-03T01:15:21;99207.28;;;8.48;70.31
75312;BME280;63906;55.686;37.532;2023-04-03T01:25:33;99203.88;;;8.32;70.36
75312;BME280;63906;55.686;37.532;2023-04-03T01:30:46;99242.66;;;8.52;70.59
75312;BME280;63906;55.686;37.532;2023-04-03T01:35:47;99223.06;;;8.33;70.47
75312;BME280;63906;55.686;37.532;2023-04-03T01:40:48;99232.19;;;8.37;70.29
75312;BME280;63906;55.686;37.532;2023-04-03T01:45:49;99239.06;;;8.38;70.70
75312;BME280;63906;55.686;37.532;2023-04-03T01:50:50;99243.69;;;8.36;71.05
75312;BME280;63906;55.686;37.532;2023-04-03T01:55:51;99219.00;;;8.16;70.94
75312;BME280;63906;55.686;37.532;2023-04-03T02:00:52;99244.38;;;8.30;71.51
75312;BME280;63906;55.686;37.532;2023-04-03T02:05:53;99215.38;;;8.17;71.24
75312;BME280;63906;55.686;37.532;2023-04-03T02:10:53;99230.75;;;8.20;71.30
75312;BME280;63906;55.686;37.532;2023-04-03T02:15:54;99234.47;;;8.10;71.60
75312;BME280;63906;55.686;37.532;2023-04-03T02:20:54;99240.25;;;8.06;71.17
75312;BME280;63906;55.686;37.532;2023-04-03T02:26:06;99244.41;;;8.00;72.01
75312;BME280;63906;55.686;37.532;2023-04-03T02:31:08;99219.16;;;7.78;71.95
75312;BME280;63906;55.686;37.532;2023-04-03T02:36:09;99245.63;;;7.83;72.27
75312;BME280;63906;55.686;37.532;2023-04-03T02:41:11;99232.50;;;7.68;72.46
75312;BME280;63906;55.686;37.532;2023-04-03T02:46:12;99183.75;;;7.38;72.28
75312;BME280;63906;55.686;37.532;2023-04-03T02:51:15;99239.66;;;7.60;72.47
75312;BME280;63906;55.686;37.532;2023-04-03T02:56:16;99209.38;;;7.27;72.54
75312;BME280;63906;55.686;37.532;2023-04-03T03:01:18;99254.72;;;7.43;71.99
75312;BME280;63906;55.686;37.532;2023-04-03T03:06:18;99250.72;;;7.32;72.77
75312;BME280;63906;55.686;37.532;2023-04-03T03:11:19;99240.94;;;7.26;72.23
75312;BME280;63906;55.686;37.532;2023-04-03T03:16:20;99234.31;;;7.00;72.81
75312;BME280;63906;55.686;37.532;2023-04-03T03:21:20;99251.53;;;6.95;73.07
75312;BME280;63906;55.686;37.532;2023-04-03T03:26:21;99233.06;;;6.73;73.04
75312;BME280;63906;55.686;37.532;2023-04-03T03:31:22;99255.38;;;6.84;72.86
75312;BME280;63906;55.686;37.532;2023-04-03T03:36:22;99251.88;;;6.69;73.62
75312;BME280;63906;55.686;37.532;2023-04-03T03:41:23;99241.66;;;6.59;73.71
75312;BME280;63906;55.686;37.532;2023-04-03T03:46:23;99254.78;;;6.74;73.55
75312;BME280;63906;55.686;37.532;2023-04-03T03:51:24;99258.16;;;6.83;73.67
75312;BME280;63906;55.686;37.532;2023-04-03T03:56:24;99242.56;;;6.89;72.99
75312;BME280;63906;55.686;37.532;2023-04-03T04:01:25;99230.66;;;7.10;71.67
75312;BME280;63906;55.686;37.532;2023-04-03T04:06:26;99263.09;;;7.38;71.72
75312;BME280;63906;55.686;37.532;2023-04-03T04:11:28;99258.41;;;7.34;71.34
75312;BME280;63906;55.686;37.532;2023-04-03T04:16:28;99263.28;;;7.37;71.55
75312;BME280;63906;55.686;37.532;2023-04-03T04:21:29;99275.41;;;7.52;70.79
75312;BME280;63906;55.686;37.532;2023-04-03T04:26:29;99196.81;;;7.08;70.33
75312;BME280;63906;55.686;37.532;2023-04-03T04:31:30;99279.91;;;7.44;70.75
75312;BME280;63906;55.686;37.532;2023-04-03T04:36:30;99268.00;;;7.41;70.75
75312;BME280;63906;55.686;37.532;2023-04-03T04:41:31;99264.38;;;7.57;70.49
75312;BME280;63906;55.686;37.532;2023-04-03T04:46:31;99253.28;;;7.70;70.01
75312;BME280;63906;55.686;37.532;2023-04-03T04:51:32;99260.41;;;8.05;69.44
75312;BME280;63906;55.686;37.532;2023-04-03T04:56:38;99258.09;;;8.32;68.07
75312;BME280;63906;55.686;37.532;2023-04-03T05:01:39;99277.78;;;8.72;67.01
75312;BME280;63906;55.686;37.532;2023-04-03T05:06:39;99276.84;;;9.01;66.39
75312;BME280;63906;55.686;37.532;2023-04-03T05:11:40;99257.84;;;9.21;65.48
75312;BME280;63906;55.686;37.532;2023-04-03T05:16:40;99254.59;;;9.47;65.51
75312;BME280;63906;55.686;37.532;2023-04-03T05:21:41;99277.50;;;9.59;63.83
75312;BME280;63906;55.686;37.532;2023-04-03T05:26:42;99262.25;;;9.76;64.15
75312;BME280;63906;55.686;37.532;2023-04-03T05:31:43;99275.97;;;10.06;63.04
75312;BME280;63906;55.686;37.532;2023-04-03T05:36:43;99288.19;;;10.20;62.15
75312;BME280;63906;55.686;37.532;2023-04-03T05:41:44;99209.53;;;9.84;62.88
75312;BME280;63906;55.686;37.532;2023-04-03T05:46:45;99267.50;;;10.17;62.35
75312;BME280;63906;55.686;37.532;2023-04-03T05:51:45;99284.44;;;10.43;62.13
75312;BME280;63906;55.686;37.532;2023-04-03T05:56:46;99271.25;;;10.30;61.89
75312;BME280;63906;55.686;37.532;2023-04-03T06:01:47;99281.81;;;10.43;62.03
75312;BME280;63906;55.686;37.532;2023-04-03T06:06:53;99311.03;;;10.61;61.76
75312;BME280;63906;55.686;37.532;2023-04-03T06:11:54;99326.44;;;10.64;61.50
75312;BME280;63906;55.686;37.532;2023-04-03T06:16:55;99308.00;;;10.64;60.77
75312;BME280;63906;55.686;37.532;2023-04-03T06:21:56;99298.00;;;10.40;60.49
75312;BME280;63906;55.686;37.532;2023-04-03T06:26:56;99298.84;;;10.54;60.05
75312;BME280;63906;55.686;37.532;2023-04-03T06:31:57;99307.03;;;10.85;60.55
75312;BME280;63906;55.686;37.532;2023-04-03T06:36:58;99323.31;;;11.22;60.74
75312;BME280;63906;55.686;37.532;2023-04-03T06:41:58;99314.81;;;11.53;59.60
75312;BME280;63906;55.686;37.532;2023-04-03T06:46:59;99321.72;;;11.80;59.25
75312;BME280;63906;55.686;37.532;2023-04-03T06:51:59;99326.13;;;12.13;58.66
75312;BME280;63906;55.686;37.532;2023-04-03T06:57:00;99328.13;;;12.31;57.74
75312;BME280;63906;55.686;37.532;2023-04-03T07:02:01;99323.78;;;12.50;56.06
75312;BME280;63906;55.686;37.532;2023-04-03T07:07:02;99326.56;;;12.68;56.44
75312;BME280;63906;55.686;37.532;2023-04-03T07:12:03;99319.88;;;12.97;55.00
75312;BME280;63906;55.686;37.532;2023-04-03T07:17:03;99281.03;;;12.98;54.78
75312;BME280;63906;55.686;37.532;2023-04-03T07:22:04;99299.13;;;13.32;54.08
75312;BME280;63906;55.686;37.532;2023-04-03T07:27:05;99312.81;;;13.72;53.33
75312;BME280;63906;55.686;37.532;2023-04-03T07:32:06;99310.63;;;13.69;51.65
75312;BME280;63906;55.686;37.532;2023-04-03T07:37:07;99291.63;;;13.79;51.26
75312;BME280;63906;55.686;37.532;2023-04-03T07:42:09;99321.75;;;14.33;54.32
75312;BME280;63906;55.686;37.532;2023-04-03T07:47:10;99300.09;;;14.06;49.06
75312;BME280;63906;55.686;37.532;2023-04-03T07:52:10;99305.31;;;14.49;50.56
75312;BME280;63906;55.686;37.532;2023-04-03T07:57:11;99298.16;;;14.32;48.92
75312;BME280;63906;55.686;37.532;2023-04-03T08:02:12;99290.59;;;14.17;50.05
75312;BME280;63906;55.686;37.532;2023-04-03T08:07:12;99308.53;;;14.15;49.43
75312;BME280;63906;55.686;37.532;2023-04-03T08:12:13;99307.63;;;14.39;49.29
75312;BME280;63906;55.686;37.532;2023-04-03T08:17:15;99263.41;;;13.73;49.38
75312;BME280;63906;55.686;37.532;2023-04-03T08:22:15;99320.16;;;14.14;49.38
75312;BME280;63906;55.686;37.532;2023-04-03T08:27:16;99332.53;;;14.57;49.25
75312;BME280;63906;55.686;37.532;2023-04-03T08:32:19;99324.97;;;15.02;48.89
75312;BME280;63906;55.686;37.532;2023-04-03T08:37:19;99321.94;;;15.17;48.64
75312;BME280;63906;55.686;37.532;2023-04-03T08:42:42;99332.06;;;15.20;47.64
75312;BME280;63906;55.686;37.532;2023-04-03T08:48:00;99334.91;;;14.76;48.41
75312;BME280;63906;55.686;37.532;2023-04-03T08:53:14;99340.81;;;14.78;47.61
75312;BME280;63906;55.686;37.532;2023-04-03T08:58:19;99349.84;;;15.31;47.49
75312;BME280;63906;55.686;37.532;2023-04-03T09:03:21;99350.34;;;15.51;46.37
75312;BME280;63906;55.686;37.532;2023-04-03T09:08:45;99363.81;;;15.80;47.13
75312;BME280;63906;55.686;37.532;2023-04-03T09:14:07;99359.75;;;15.66;46.54
75312;BME280;63906;55.686;37.532;2023-04-03T09:24:31;99353.81;;;15.52;45.77
75312;BME280;63906;55.686;37.532;2023-04-03T09:29:36;99356.09;;;15.78;45.37
75312;BME280;63906;55.686;37.532;2023-04-03T09:34:39;99345.91;;;16.10;44.49
75312;BME280;63906;55.686;37.532;2023-04-03T09:40:00;99353.06;;;16.10;45.22
75312;BME280;63906;55.686;37.532;2023-04-03T09:45:04;99360.31;;;16.14;43.54
75312;BME280;63906;55.686;37.532;2023-04-03T09:55:26;99348.41;;;16.52;43.80
75312;BME280;63906;55.686;37.532;2023-04-03T10:00:36;99353.34;;;16.60;43.83
75312;BME280;63906;55.686;37.532;2023-04-03T10:05:40;99367.78;;;16.53;41.10
75312;BME280;63906;55.686;37.532;2023-04-03T10:10:43;99358.00;;;16.30;43.12
75312;BME280;63906;55.686;37.532;2023-04-03T10:16:04;99373.03;;;16.36;42.70
75312;BME280;63906;55.686;37.532;2023-04-03T10:53:37;99378.81;;;16.09;42.68
75312;BME280;63906;55.686;37.532;2023-04-03T10:58:43;99355.13;;;16.20;42.01
75312;BME280;63906;55.686;37.532;2023-04-03T11:03:48;99375.13;;;16.10;41.91
75312;BME280;63906;55.686;37.532;2023-04-03T11:08:59;99360.56;;;16.13;42.49
75312;BME280;63906;55.686;37.532;2023-04-03T11:19:41;99366.22;;;16.28;41.83
75312;BME280;63906;55.686;37.532;2023-04-03T11:24:46;99371.06;;;16.20;42.63
75312;BME280;63906;55.686;37.532;2023-04-03T11:29:52;99370.81;;;16.33;42.70
75312;BME280;63906;55.686;37.532;2023-04-03T11:34:56;99364.69;;;16.44;42.48
75312;BME280;63906;55.686;37.532;2023-04-03T11:40:02;99357.22;;;16.69;42.74
75312;BME280;63906;55.686;37.532;2023-04-03T12:01:07;99361.56;;;16.47;42.71
75312;BME280;63906;55.686;37.532;2023-04-03T12:16:23;99357.06;;;15.12;45.78
75312;BME280;63906;55.686;37.532;2023-04-03T12:48:14;99340.25;;;14.58;45.03
75312;BME280;63906;55.686;37.532;2023-04-03T12:53:33;99379.03;;;14.52;45.47
75312;BME280;63906;55.686;37.532;2023-04-03T12:58:35;99349.56;;;14.06;46.18
75312;BME280;63906;55.686;37.532;2023-04-03T13:03:37;99376.47;;;14.21;45.99
75312;BME280;63906;55.686;37.532;2023-04-03T13:08:49;99364.28;;;14.20;45.90
75312;BME280;63906;55.686;37.532;2023-04-03T13:14:01;99361.59;;;14.01;46.97
75312;BME280;63906;55.686;37.532;2023-04-03T13:19:03;99383.44;;;13.72;47.45
75312;BME280;63906;55.686;37.532;2023-04-03T13:24:04;99377.84;;;13.62;47.90
75312;BME280;63906;55.686;37.532;2023-04-03T13:29:16;99387.22;;;13.58;47.86
75312;BME280;63906;55.686;37.532;2023-04-03T13:34:20;99367.19;;;13.43;47.99
75312;BME280;63906;55.686;37.532;2023-04-03T13:39:30;99375.97;;;13.37;48.24
75312;BME280;63906;55.686;37.532;2023-04-03T13:44:34;99392.94;;;13.23;49.34
75312;BME280;63906;55.686;37.532;2023-04-03T13:49:38;99384.00;;;13.17;49.76
75312;BME280;63906;55.686;37.532;2023-04-03T13:54:39;99393.94;;;13.15;50.95
75312;BME280;63906;55.686;37.532;2023-04-03T13:59:40;99366.22;;;13.00;50.18
75312;BME280;63906;55.686;37.532;2023-04-03T14:09:44;99379.03;;;12.96;51.26
75312;BME280;63906;55.686;37.532;2023-04-03T14:14:45;99392.53;;;12.75;52.07
75312;BME280;63906;55.686;37.532;2023-04-03T14:19:47;99394.78;;;12.71;52.22
75312;BME280;63906;55.686;37.532;2023-04-03T14:24:49;99385.25;;;12.70;52.30
75312;BME280;63906;55.686;37.532;2023-04-03T14:29:52;99388.41;;;12.92;52.10
75312;BME280;63906;55.686;37.532;2023-04-03T14:34:53;99386.13;;;12.96;52.03
75312;BME280;63906;55.686;37.532;2023-04-03T14:39:58;99387.56;;;12.98;52.46
75312;BME280;63906;55.686;37.532;2023-04-03T14:45:00;99381.88;;;12.94;52.20
75312;BME280;63906;55.686;37.532;2023-04-03T14:50:04;99380.34;;;12.80;52.96
75312;BME280;63906;55.686;37.532;2023-04-03T14:55:06;99382.53;;;12.83;52.68
75312;BME280;63906;55.686;37.532;2023-04-03T15:00:11;99379.75;;;12.72;52.89
75312;BME280;63906;55.686;37.532;2023-04-03T15:05:12;99378.34;;;12.69;52.43
75312;BME280;63906;55.686;37.532;2023-04-03T15:10:20;99358.09;;;12.50;52.76
75312;BME280;63906;55.686;37.532;2023-04-03T15:15:23;99384.47;;;12.63;52.48
75312;BME280;63906;55.686;37.532;2023-04-03T15:20:25;99393.41;;;12.62;52.56
75312;BME280;63906;55.686;37.532;2023-04-03T15:25:27;99388.97;;;12.49;52.22
75312;BME280;63906;55.686;37.532;2023-04-03T15:30:27;99392.78;;;12.60;52.42
75312;BME280;63906;55.686;37.532;2023-04-03T15:35:28;99376.38;;;12.51;52.17
75312;BME280;63906;55.686;37.532;2023-04-03T15:40:32;99395.25;;;12.48;52.72
75312;BME280;63906;55.686;37.532;2023-04-03T15:45:35;99387.53;;;12.47;52.55
75312;BME280;63906;55.686;37.532;2023-04-03T15:50:37;99380.44;;;12.40;52.65
75312;BME280;63906;55.686;37.532;2023-04-03T15:55:38;99385.78;;;12.27;52.76
75312;BME280;63906;55.686;37.532;2023-04-03T16:00:39;99394.31;;;12.16;52.86
75312;BME280;63906;55.686;37.532;2023-04-03T16:05:40;99362.69;;;11.90;53.24
75312;BME280;63906;55.686;37.532;2023-04-03T16:10:41;99378.94;;;11.93;53.04
75312;BME280;63906;55.686;37.532;2023-04-03T16:15:41;99401.22;;;11.97;53.40
75312;BME280;63906;55.686;37.532;2023-04-03T16:20:43;99411.78;;;12.04;53.15
75312;BME280;63906;55.686;37.532;2023-04-03T16:25:44;99409.75;;;12.06;52.34
75312;BME280;63906;55.686;37.532;2023-04-03T16:30:48;99422.72;;;12.21;52.48
75312;BME280;63906;55.686;37.532;2023-04-03T16:35:50;99402.84;;;11.92;52.42
75312;BME280;63906;55.686;37.532;2023-04-03T16:40:52;99426.38;;;12.20;52.67
75312;BME280;63906;55.686;37.532;2023-04-03T16:45:59;99403.47;;;11.80;53.68
75312;BME280;63906;55.686;37.532;2023-04-03T16:51:02;99423.13;;;11.71;54.95
75312;BME280;63906;55.686;37.532;2023-04-03T16:56:03;99372.34;;;11.16;56.03
75312;BME280;63906;55.686;37.532;2023-04-03T17:01:14;99450.84;;;11.41;56.18
75312;BME280;63906;55.686;37.532;2023-04-03T17:06:18;99439.91;;;11.30;56.83
75312;BME280;63906;55.686;37.532;2023-04-03T17:11:19;99455.09;;;11.42;56.58
75312;BME280;63906;55.686;37.532;2023-04-03T17:16:21;99442.56;;;11.44;56.54
75312;BME280;63906;55.686;37.532;2023-04-03T17:21:22;99426.75;;;11.44;55.92
75312;BME280;63906;55.686;37.532;2023-04-03T17:26:23;99454.53;;;11.66;55.99
75312;BME280;63906;55.686;37.532;2023-04-03T17:31:25;99458.19;;;11.58;56.51
75312;BME280;63906;55.686;37.532;2023-04-03T17:36:35;99460.03;;;11.65;55.82
75312;BME280;63906;55.686;37.532;2023-04-03T17:41:36;99462.44;;;11.66;55.72
75312;BME280;63906;55.686;37.532;2023-04-03T17:46:37;99441.56;;;11.65;55.76
75312;BME280;63906;55.686;37.532;2023-04-03T17:51:38;99458.63;;;11.62;56.09
75312;BME280;63906;55.686;37.532;2023-04-03T17:56:39;99453.50;;;11.47;55.89
75312;BME280;63906;55.686;37.532;2023-04-03T18:01:45;99451.88;;;11.40;56.98
75312;BME280;63906;55.686;37.532;2023-04-03T18:06:48;99460.34;;;11.35;56.40
75312;BME280;63906;55.686;37.532;2023-04-03T18:11:51;99463.16;;;11.20;56.97
75312;BME280;63906;55.686;37.532;2023-04-03T18:16:52;99452.97;;;11.04;57.42
75312;BME280;63906;55.686;37.532;2023-04-03T18:21:55;99435.88;;;10.87;57.67
75312;BME280;63906;55.686;37.532;2023-04-03T18:27:01;99442.38;;;10.91;58.96
75312;BME280;63906;55.686;37.532;2023-04-03T18:32:06;99446.75;;;10.70;59.45
75312;BME280;63906;55.686;37.532;2023-04-03T18:37:08;99448.75;;;10.68;60.58
75312;BME280;63906;55.686;37.532;2023-04-03T18:42:15;99458.28;;;10.69;60.30
75312;BME280;63906;55.686;37.532;2023-04-03T18:47:16;99434.91;;;10.53;61.13
75312;BME280;63906;55.686;37.532;2023-04-03T18:52:17;99448.97;;;10.73;60.65
75312;BME280;63906;55.686;37.532;2023-04-03T18:57:19;99453.38;;;10.66;62.03
75312;BME280;63906;55.686;37.532;2023-04-03T19:02:20;99429.41;;;10.48;62.11
75312;BME280;63906;55.686;37.532;2023-04-03T19:07:23;99454.16;;;10.60;63.00
75312;BME280;63906;55.686;37.532;2023-04-03T19:12:24;99375.44;;;9.96;64.12
75312;BME280;63906;55.686;37.532;2023-04-03T19:17:25;99353.72;;;9.59;66.14
75312;BME280;63906;55.686;37.532;2023-04-03T19:22:27;99430.41;;;10.19;65.26
75312;BME280;63906;55.686;37.532;2023-04-03T19:27:30;99428.91;;;10.10;65.83
75312;BME280;63906;55.686;37.532;2023-04-03T19:32:33;99428.06;;;10.03;66.42
75312;BME280;63906;55.686;37.532;2023-04-03T19:37:34;99443.88;;;10.09;66.67
75312;BME280;63906;55.686;37.532;2023-04-03T19:42:35;99425.13;;;9.91;67.30
75312;BME280;63906;55.686;37.532;2023-04-03T19:47:42;99418.16;;;9.77;67.89
75312;BME280;63906;55.686;37.532;2023-04-03T19:52:43;99434.03;;;9.90;67.85
75312;BME280;63906;55.686;37.532;2023-04-03T19:57:49;99447.91;;;10.05;67.55
75312;BME280;63906;55.686;37.532;2023-04-03T20:02:49;99393.44;;;9.50;68.27
75312;BME280;63906;55.686;37.532;2023-04-03T20:07:50;99438.38;;;9.76;69.17
75312;BME280;63906;55.686;37.532;2023-04-03T20:12:50;99399.75;;;9.55;69.91
75312;BME280;63906;55.686;37.532;2023-04-03T20:17:51;99420.41;;;9.58;69.91
75312;BME280;63906;55.686;37.532;2023-04-03T20:22:52;99443.06;;;9.59;70.46
75312;BME280;63906;55.686;37.532;2023-04-03T20:27:53;99434.16;;;9.60;70.91
75312;BME280;63906;55.686;37.532;2023-04-03T20:32:54;99437.06;;;9.65;71.14
75312;BME280;63906;55.686;37.532;2023-04-03T20:37:58;99436.19;;;9.58;71.31
75312;BME280;63906;55.686;37.532;2023-04-03T20:42:59;99441.91;;;9.68;71.08
75312;BME280;63906;55.686;37.532;2023-04-03T20:48:02;99409.19;;;9.50;71.54
75312;BME280;63906;55.686;37.532;2023-04-03T20:53:05;99421.16;;;9.52;72.44
75312;BME280;63906;55.686;37.532;2023-04-03T20:58:06;99410.41;;;9.47;72.57
75312;BME280;63906;55.686;37.532;2023-04-03T21:03:06;99384.63;;;9.36;72.19
75312;BME280;63906;55.686;37.532;2023-04-03T21:19:27;99421.03;;;9.39;72.69
75312;BME280;63906;55.686;37.532;2023-04-03T21:24:28;99390.13;;;9.20;73.04
75312;BME280;63906;55.686;37.532;2023-04-03T21:29:30;99385.63;;;9.13;73.35
75312;BME280;63906;55.686;37.532;2023-04-03T21:34:34;99427.84;;;9.33;73.77
75312;BME280;63906;55.686;37.532;2023-04-03T21:39:35;99420.16;;;9.32;74.29
75312;BME280;63906;55.686;37.532;2023-04-03T21:44:36;99423.84;;;9.37;74.02
75312;BME280;63906;55.686;37.532;2023-04-03T21:49:37;99386.44;;;9.14;74.30
75312;BME280;63906;55.686;37.532;2023-04-03T21:54:37;99418.16;;;9.34;73.77
75312;BME280;63906;55.686;37.532;2023-04-03T21:59:38;99401.53;;;9.27;73.05
75312;BME280;63906;55.686;37.532;2023-04-03T22:04:39;99409.66;;;9.32;72.47
75312;BME280;63906;55.686;37.532;2023-04-03T22:09:39;99396.13;;;9.13;73.10
75312;BME280;63906;55.686;37.532;2023-04-03T22:14:40;99374.22;;;9.06;73.08
75312;BME280;63906;55.686;37.532;2023-04-03T22:19:41;99381.41;;;9.19;73.18
75312;BME280;63906;55.686;37.532;2023-04-03T22:24:41;99361.34;;;9.11;72.94
75312;BME280;63906;55.686;37.532;2023-04-03T22:29:42;99360.53;;;9.11;73.21
75312;BME280;63906;55.686;37.532;2023-04-03T22:34:42;99389.63;;;9.31;73.40
75312;BME280;63906;55.686;37.532;2023-04-03T22:39:43;99380.88;;;9.24;72.79
75312;BME280;63906;55.686;37.532;2023-04-03T22:44:43;99356.22;;;9.03;72.68
75312;BME280;63906;55.686;37.532;2023-04-03T22:49:44;99361.22;;;8.98;72.46
75312;BME280;63906;55.686;37.532;2023-04-03T22:54:44;99389.47;;;8.96;73.18
75312;BME280;63906;55.686;37.532;2023-04-03T22:59:45;99372.69;;;8.76;73.58
75312;BME280;63906;55.686;37.532;2023-04-03T23:04:45;99365.56;;;8.55;73.84
75312;BME280;63906;55.686;37.532;2023-04-03T23:09:46;99383.72;;;8.56;74.44
75312;BME280;63906;55.686;37.532;2023-04-03T23:14:47;99379.69;;;8.39;74.63
75312;BME280;63906;55.686;37.532;2023-04-03T23:19:47;99365.38;;;8.27;75.03
75312;BME280;63906;55.686;37.532;2023-04-03T23:24:48;99386.91;;;8.37;75.19
75312;BME280;63906;55.686;37.532;2023-04-03T23:29:48;99373.81;;;8.37;75.22
75312;BME280;63906;55.686;37.532;2023-04-03T23:34:49;99379.59;;;8.47;75.38
75312;BME280;63906;55.686;37.532;2023-04-03T23:39:49;99352.09;;;8.43;74.98
75312;BME280;63906;55.686;37.532;2023-04-03T23:44:50;99383.38;;;8.59;75.71
75312;BME280;63906;55.686;37.532;2023-04-03T23:49:50;99386.91;;;8.67;74.50
75312;BME280;63906;55.686;37.532;2023-04-03T23:54:51;99375.06;;;8.71;74.69
75312;BME280;63906;55.686;37.532;2023-04-03T23:59:51;99340.53;;;8.52;74.37
